createdAt,value
2022-07-27T00:01:19.653Z,72.51
2022-07-27T00:03:47.741Z,74.17
2022-07-27T00:06:15.860Z,71.13
2022-07-27T00:08:43.443Z,71.14
2022-07-27T00:11:11.582Z,69.70
2022-07-27T00:13:40.694Z,71.09
2022-07-27T00:16:08.454Z,73.54
2022-07-27T00:18:35.984Z,74.48
2022-07-27T00:21:03.522Z,71.38
2022-07-27T00:23:31.061Z,67.41
2022-07-27T00:25:58.563Z,68.66
2022-07-27T00:28:26.112Z,73.00
2022-07-27T00:30:54.975Z,77.89
2022-07-27T00:33:22.504Z,78.09
2022-07-27T00:35:50.012Z,75.97
2022-07-27T00:38:17.752Z,73.23
2022-07-27T00:40:46.035Z,74.01
2022-07-27T00:43:14.077Z,79.46
2022-07-27T00:45:41.697Z,85.37
2022-07-27T00:48:10.657Z,90.13
2022-07-27T00:50:39.406Z,89.31
2022-07-27T00:53:06.971Z,86.67
2022-07-27T00:55:35.109Z,80.41
2022-07-27T00:58:04.921Z,73.82
2022-07-27T01:00:32.556Z,71.12
2022-07-27T01:03:02.359Z,69.41
2022-07-27T01:05:36.370Z,69.63
2022-07-27T01:08:07.742Z,69.34
2022-07-27T01:10:35.432Z,69.21
2022-07-27T01:13:16.430Z,68.64
2022-07-27T01:15:44.352Z,68.72
2022-07-27T01:18:13.763Z,69.14
2022-07-27T01:20:43.273Z,70.97
2022-07-27T01:23:12.368Z,75.99
2022-07-27T01:25:42.361Z,75.38
2022-07-27T01:28:09.880Z,74.40
2022-07-27T01:30:37.409Z,75.32
2022-07-27T01:33:06.647Z,74.69
2022-07-27T01:35:34.677Z,74.77
2022-07-27T01:38:02.437Z,76.26
2022-07-27T01:40:31.380Z,77.63
2022-07-27T01:42:58.945Z,76.79
2022-07-27T01:45:26.677Z,78.32
2022-07-27T01:47:54.291Z,78.48
2022-07-27T01:50:21.832Z,76.88
2022-07-27T01:52:49.592Z,77.65
2022-07-27T01:55:17.110Z,84.46
2022-07-27T01:57:46.079Z,81.26
2022-07-27T02:00:14.743Z,79.05
2022-07-27T02:02:43.198Z,81.20
2022-07-27T02:05:12.424Z,81.19
2022-07-27T02:07:40.590Z,83.04
2022-07-27T02:10:09.103Z,87.51
2022-07-27T02:12:35.873Z,84.34
2022-07-27T02:15:06.435Z,78.94
2022-07-27T02:17:35.176Z,76.68
2022-07-27T02:20:03.051Z,77.71
2022-07-27T02:22:31.220Z,86.15
2022-07-27T02:24:59.114Z,89.56
2022-07-27T02:27:26.733Z,84.06
2022-07-27T02:29:54.415Z,81.79
2022-07-27T02:32:23.292Z,82.57
2022-07-27T02:34:51.429Z,82.82
2022-07-27T02:37:18.952Z,84.05
2022-07-27T02:39:46.452Z,79.04
2022-07-27T02:42:13.968Z,75.88
2022-07-27T02:44:41.579Z,75.65
2022-07-27T02:47:09.102Z,76.02
2022-07-27T02:49:38.224Z,76.33
2022-07-27T02:52:06.844Z,80.63
2022-07-27T02:54:34.906Z,88.58
2022-07-27T02:57:04.714Z,93.95
2022-07-27T02:59:32.319Z,96.95
2022-07-27T03:01:59.852Z,94.86
2022-07-27T03:04:27.844Z,84.60
2022-07-27T03:06:56.706Z,85.51
2022-07-27T03:09:32.860Z,85.49
2022-07-27T03:12:01.174Z,79.92
2022-07-27T03:14:29.292Z,79.18
2022-07-27T03:16:56.844Z,78.05
2022-07-27T03:19:29.728Z,77.56
2022-07-27T03:21:59.219Z,77.40
2022-07-27T03:24:26.705Z,77.42
2022-07-27T03:26:54.208Z,77.13
2022-07-27T03:29:21.724Z,76.20
2022-07-27T03:31:49.227Z,75.73
2022-07-27T03:34:17.483Z,75.63
2022-07-27T03:36:46.095Z,77.24
2022-07-27T03:39:15.216Z,78.80
2022-07-27T03:41:42.935Z,77.16
2022-07-27T03:44:10.451Z,76.94
2022-07-27T03:46:37.957Z,76.41
2022-07-27T03:49:14.691Z,80.00
2022-07-27T03:51:43.021Z,82.98
2022-07-27T03:54:10.745Z,80.02
2022-07-27T03:56:39.616Z,79.08
2022-07-27T03:59:07.140Z,76.67
2022-07-27T04:01:34.808Z,74.63
2022-07-27T04:04:02.641Z,73.98
2022-07-27T04:06:30.245Z,74.51
2022-07-27T04:09:07.747Z,77.13
2022-07-27T04:11:37.713Z,78.85
2022-07-27T04:14:13.011Z,82.59
2022-07-27T04:16:41.282Z,79.56
2022-07-27T04:19:09.208Z,74.76
2022-07-27T04:21:37.435Z,74.96
2022-07-27T04:24:05.793Z,72.97
2022-07-27T04:26:33.479Z,70.49
2022-07-27T04:29:00.988Z,68.41
2022-07-27T04:31:29.938Z,70.86
2022-07-27T04:33:57.468Z,73.34
2022-07-27T04:36:25.124Z,75.48
2022-07-27T04:38:52.624Z,80.03
2022-07-27T04:41:20.171Z,83.50
2022-07-27T04:43:47.684Z,87.58
2022-07-27T04:46:15.726Z,93.58
2022-07-27T04:48:49.560Z,95.32
2022-07-27T04:51:18.623Z,95.54
2022-07-27T04:53:53.472Z,97.65
2022-07-27T04:56:26.307Z,94.47
2022-07-27T04:58:54.152Z,93.46
2022-07-27T05:01:22.932Z,96.29
2022-07-27T05:03:52.236Z,97.53
2022-07-27T05:06:20.058Z,99.02
2022-07-27T05:08:47.737Z,97.29
2022-07-27T05:11:15.378Z,93.51
2022-07-27T05:13:42.916Z,95.31
2022-07-27T05:16:11.704Z,94.40
2022-07-27T05:18:39.913Z,92.80
2022-07-27T05:21:09.677Z,97.94
2022-07-27T05:23:37.283Z,96.89
2022-07-27T05:26:05.274Z,97.55
2022-07-27T05:28:32.863Z,99.13
2022-07-27T05:31:00.387Z,100.00
2022-07-27T05:33:27.889Z,98.43
2022-07-27T05:35:56.367Z,96.45
2022-07-27T05:38:25.216Z,94.73
2022-07-27T05:40:53.141Z,90.57
2022-07-27T05:43:20.658Z,91.84
2022-07-27T05:45:48.296Z,90.57
2022-07-27T05:48:16.501Z,88.21
2022-07-27T05:50:44.027Z,84.04
2022-07-27T05:53:11.579Z,80.15
2022-07-27T05:55:58.465Z,76.38
2022-07-27T05:58:27.043Z,75.74
2022-07-27T06:00:54.693Z,77.81
2022-07-27T06:03:22.604Z,84.18
2022-07-27T06:05:50.864Z,81.30
2022-07-27T06:08:17.502Z,78.66
2022-07-27T06:10:46.359Z,74.11
2022-07-27T06:13:13.939Z,71.21
2022-07-27T06:15:41.525Z,67.71
2022-07-27T06:18:16.706Z,70.13
2022-07-27T06:20:45.695Z,66.30
2022-07-27T06:23:13.438Z,66.23
2022-07-27T06:25:40.952Z,65.71
2022-07-27T06:28:09.960Z,65.72
2022-07-27T06:30:37.480Z,62.48
2022-07-27T06:33:06.206Z,63.43
2022-07-27T06:35:34.044Z,70.42
2022-07-27T06:38:01.798Z,69.41
2022-07-27T06:40:30.110Z,68.17
2022-07-27T06:42:58.260Z,71.04
2022-07-27T06:45:27.599Z,69.08
2022-07-27T06:47:55.103Z,70.85
2022-07-27T06:50:23.342Z,62.98
2022-07-27T06:52:50.926Z,61.07
2022-07-27T06:55:18.628Z,58.14
2022-07-27T06:57:46.369Z,56.10
2022-07-27T07:00:15.386Z,55.82
2022-07-27T07:02:53.801Z,60.20
2022-07-27T07:05:21.637Z,60.54
2022-07-27T07:07:49.173Z,57.29
2022-07-27T07:10:16.799Z,62.26
2022-07-27T07:12:44.301Z,57.82
2022-07-27T07:15:13.218Z,52.50
2022-07-27T07:17:41.193Z,49.67
2022-07-27T07:20:11.379Z,48.09
2022-07-27T07:22:38.867Z,44.05
2022-07-27T07:25:06.585Z,43.80
2022-07-27T07:27:34.194Z,42.61
2022-07-27T07:30:02.720Z,42.83
2022-07-27T07:32:33.509Z,47.24
2022-07-27T07:35:01.476Z,47.83
2022-07-27T07:37:31.649Z,44.96
2022-07-27T07:40:18.757Z,40.32
2022-07-27T07:42:53.733Z,37.10
2022-07-27T07:45:22.130Z,37.46
2022-07-27T07:47:50.495Z,36.31
2022-07-27T07:50:18.401Z,36.63
2022-07-27T07:52:48.507Z,34.46
2022-07-27T07:55:16.879Z,32.54
2022-07-27T07:57:44.389Z,30.84
2022-07-27T08:00:12.859Z,29.83
2022-07-27T08:02:45.489Z,30.42
2022-07-27T08:05:13.888Z,34.44
2022-07-27T08:07:41.710Z,33.40
2022-07-27T08:10:13.737Z,29.82
2022-07-27T08:12:43.827Z,26.80
2022-07-27T08:15:12.634Z,26.84
2022-07-27T08:17:40.578Z,28.16
2022-07-27T08:20:09.052Z,28.75
2022-07-27T08:22:36.958Z,28.65
2022-07-27T08:25:05.296Z,28.90
2022-07-27T08:27:40.357Z,29.62
2022-07-27T08:30:10.391Z,29.01
2022-07-27T08:32:53.225Z,30.83
2022-07-27T08:35:22.057Z,30.69
2022-07-27T08:37:50.060Z,31.56
2022-07-27T08:43:08.729Z,33.55
2022-07-27T08:45:37.152Z,34.50
2022-07-27T08:48:05.676Z,34.15
2022-07-27T08:50:34.827Z,34.11
2022-07-27T08:53:05.473Z,33.37
2022-07-27T08:55:34.620Z,32.38
2022-07-27T08:58:03.781Z,31.87
2022-07-27T09:00:34.311Z,33.90
2022-07-27T09:03:02.078Z,33.85
2022-07-27T09:05:37.325Z,34.86
2022-07-27T09:08:12.776Z,32.90
2022-07-27T09:10:40.727Z,33.71
2022-07-27T09:13:19.420Z,34.41
2022-07-27T09:16:16.372Z,34.54
2022-07-27T09:18:38.463Z,30.90
2022-07-27T09:21:11.260Z,33.82
2022-07-27T09:23:39.454Z,39.82
2022-07-27T09:26:29.072Z,43.68
2022-07-27T09:29:00.428Z,44.50
2022-07-27T09:31:29.885Z,40.72
2022-07-27T09:34:00.122Z,41.03
2022-07-27T09:36:29.200Z,36.60
2022-07-27T09:39:02.465Z,37.98
2022-07-27T09:41:44.083Z,38.19
2022-07-27T09:47:20.612Z,41.42
2022-07-27T09:49:48.188Z,36.84
2022-07-27T09:52:23.969Z,35.86
2022-07-27T09:54:52.056Z,34.18
2022-07-27T09:57:19.885Z,33.53
2022-07-27T09:59:47.713Z,35.68
2022-07-27T10:02:16.742Z,38.93
2022-07-27T10:04:45.151Z,40.89
2022-07-27T10:07:14.189Z,38.65
2022-07-27T10:09:42.172Z,37.32
2022-07-27T10:12:10.443Z,36.16
2022-07-27T10:14:37.958Z,39.54
2022-07-27T10:17:07.679Z,41.44
2022-07-27T10:19:42.917Z,42.22
2022-07-27T10:22:10.426Z,42.54
2022-07-27T10:24:37.971Z,40.28
2022-07-27T10:27:20.619Z,38.25
2022-07-27T10:29:49.072Z,40.32
2022-07-27T10:32:25.360Z,37.63
2022-07-27T10:34:54.475Z,38.49
2022-07-27T10:37:26.740Z,40.62
2022-07-27T10:40:15.957Z,39.35
2022-07-27T10:42:44.249Z,39.58
2022-07-27T10:45:14.062Z,34.72
2022-07-27T10:47:44.852Z,32.63
2022-07-27T10:50:32.298Z,30.51
2022-07-27T10:53:05.935Z,32.17
2022-07-27T10:55:52.494Z,32.87
2022-07-27T10:58:51.670Z,36.57
2022-07-27T11:01:21.536Z,37.83
2022-07-27T11:03:56.153Z,36.00
2022-07-27T11:06:55.484Z,34.64
2022-07-27T11:10:15.803Z,33.84
2022-07-27T11:12:04.365Z,35.54
2022-07-27T11:14:32.117Z,34.88
2022-07-27T11:17:39.893Z,34.13
2022-07-27T11:19:53.968Z,33.85
2022-07-27T11:25:19.804Z,32.57
2022-07-27T11:27:48.704Z,32.41
2022-07-27T11:30:23.461Z,34.67
2022-07-27T11:32:51.092Z,33.21
2022-07-27T11:35:20.174Z,37.27
2022-07-27T11:38:04.240Z,36.92
2022-07-27T11:43:39.005Z,41.77
2022-07-27T11:46:20.434Z,42.40
2022-07-27T11:49:06.180Z,42.09
2022-07-27T11:51:34.985Z,40.17
2022-07-27T11:54:05.898Z,33.89
2022-07-27T11:56:36.234Z,31.84
2022-07-27T11:59:10.390Z,31.88
2022-07-27T12:01:40.161Z,32.17
2022-07-27T12:04:12.862Z,31.40
2022-07-27T12:06:42.301Z,34.30
2022-07-27T12:09:14.641Z,35.64
2022-07-27T12:11:56.714Z,34.64
2022-07-27T12:14:36.852Z,36.32
2022-07-27T12:17:16.589Z,35.72
2022-07-27T12:19:50.749Z,35.65
2022-07-27T12:22:24.764Z,35.67
2022-07-27T12:24:54.406Z,33.87
2022-07-27T12:27:22.936Z,35.31
2022-07-27T12:30:02.440Z,42.33
2022-07-27T12:32:32.467Z,44.55
2022-07-27T12:35:00.814Z,44.42
2022-07-27T12:37:33.051Z,44.66
2022-07-27T12:40:01.845Z,39.36
2022-07-27T12:42:37.390Z,36.27
2022-07-27T12:45:16.665Z,37.05
2022-07-27T12:47:47.575Z,37.80
2022-07-27T12:50:16.906Z,37.66
2022-07-27T12:52:49.160Z,38.64
2022-07-27T12:55:18.978Z,39.15
2022-07-27T12:57:56.772Z,40.75
2022-07-27T13:00:32.700Z,39.51
2022-07-27T13:03:01.621Z,36.99
2022-07-27T13:05:29.187Z,34.42
2022-07-27T13:07:57.149Z,35.42
2022-07-27T13:10:26.214Z,34.83
2022-07-27T13:12:53.768Z,34.56
2022-07-27T13:15:21.385Z,39.00
2022-07-27T13:17:49.479Z,42.50
2022-07-27T13:20:18.444Z,45.61
2022-07-27T13:22:46.813Z,46.21
2022-07-27T13:25:17.316Z,46.36
2022-07-27T13:27:47.614Z,47.46
2022-07-27T13:30:16.878Z,46.13
2022-07-27T13:32:46.537Z,46.23
2022-07-27T13:35:14.714Z,46.40
2022-07-27T13:37:42.226Z,45.61
2022-07-27T13:40:10.750Z,44.79
2022-07-27T13:42:38.806Z,45.50
2022-07-27T13:45:10.975Z,45.30
2022-07-27T13:47:39.733Z,45.37
2022-07-27T13:50:16.716Z,46.66
2022-07-27T13:52:46.085Z,45.09
2022-07-27T13:55:14.043Z,45.98
2022-07-27T13:57:41.539Z,45.53
2022-07-27T14:00:11.969Z,44.93
2022-07-27T14:02:39.867Z,45.48
2022-07-27T14:05:10.002Z,44.04
2022-07-27T14:07:41.383Z,40.74
2022-07-27T14:10:29.446Z,38.41
2022-07-27T14:12:59.229Z,41.53
2022-07-27T14:15:28.395Z,40.92
2022-07-27T14:17:55.905Z,39.00
2022-07-27T14:20:23.888Z,39.43
2022-07-27T14:22:51.646Z,42.23
2022-07-27T14:25:19.254Z,45.45
2022-07-27T14:27:46.989Z,43.42
2022-07-27T14:30:20.310Z,41.97
2022-07-27T14:32:50.159Z,40.96
2022-07-27T14:35:18.231Z,40.43
2022-07-27T14:37:45.713Z,39.91
2022-07-27T14:40:14.369Z,39.96
2022-07-27T14:42:42.037Z,38.22
2022-07-27T14:45:10.224Z,37.00
2022-07-27T14:47:37.697Z,38.88
2022-07-27T14:50:09.570Z,39.11
2022-07-27T14:52:37.174Z,39.87
2022-07-27T14:55:05.138Z,39.33
2022-07-27T14:57:32.963Z,41.87
2022-07-27T15:00:00.488Z,44.19
2022-07-27T15:02:28.220Z,45.91
2022-07-27T15:04:55.716Z,46.55
2022-07-27T15:07:24.519Z,47.37
2022-07-27T15:09:52.002Z,47.58
2022-07-27T15:12:19.540Z,47.89
2022-07-27T15:14:47.064Z,46.67
2022-07-27T15:17:14.768Z,45.93
2022-07-27T15:19:42.232Z,46.13
2022-07-27T15:22:10.085Z,46.38
2022-07-27T15:24:39.002Z,45.34
2022-07-27T15:27:06.459Z,45.40
2022-07-27T15:29:33.978Z,45.31
2022-07-27T15:32:01.541Z,44.45
2022-07-27T15:34:29.312Z,43.46
2022-07-27T15:36:56.886Z,44.10
2022-07-27T15:39:24.924Z,45.36
2022-07-27T15:41:53.757Z,44.30
2022-07-27T15:44:22.461Z,43.57
2022-07-27T15:46:49.986Z,42.73
2022-07-27T15:49:18.284Z,44.01
2022-07-27T15:51:47.979Z,45.36
2022-07-27T15:54:15.527Z,44.76
2022-07-27T15:56:43.024Z,46.43
2022-07-27T15:59:12.631Z,45.58
2022-07-27T16:01:40.509Z,45.73
2022-07-27T16:04:08.753Z,45.07
2022-07-27T16:06:39.321Z,44.27
2022-07-27T16:09:09.110Z,45.95
2022-07-27T16:11:37.455Z,46.32
2022-07-27T16:14:04.981Z,47.12
2022-07-27T16:16:33.875Z,47.12
2022-07-27T16:19:12.688Z,46.25
2022-07-27T16:21:55.337Z,46.70
2022-07-27T16:24:23.637Z,47.51
2022-07-27T16:26:51.160Z,47.68
2022-07-27T16:29:18.736Z,47.81
2022-07-27T16:31:47.600Z,46.87
2022-07-27T16:34:15.184Z,45.59
2022-07-27T16:36:42.699Z,44.92
2022-07-27T16:39:10.404Z,45.55
2022-07-27T16:41:38.384Z,45.66
2022-07-27T16:44:06.360Z,46.02
2022-07-27T16:46:33.913Z,46.65
2022-07-27T16:49:02.862Z,46.73
2022-07-27T16:51:30.837Z,46.37
2022-07-27T16:53:58.318Z,45.23
2022-07-27T16:56:26.039Z,45.75
2022-07-27T16:58:53.497Z,46.51
2022-07-27T17:01:26.128Z,46.96
2022-07-27T17:03:54.699Z,47.21
2022-07-27T17:06:24.302Z,46.84
2022-07-27T17:08:51.834Z,46.14
2022-07-27T17:11:21.530Z,46.34
2022-07-27T17:13:49.792Z,46.59
2022-07-27T17:16:18.378Z,47.20
2022-07-27T17:18:46.109Z,47.11
2022-07-27T17:21:13.809Z,48.09
2022-07-27T17:23:43.968Z,47.79
2022-07-27T17:26:12.358Z,48.60
2022-07-27T17:28:40.748Z,49.40
2022-07-27T17:31:10.191Z,48.42
2022-07-27T17:33:38.548Z,48.57
2022-07-27T17:36:12.216Z,47.83
2022-07-27T17:38:43.588Z,48.07
2022-07-27T17:41:11.149Z,47.56
2022-07-27T17:43:39.385Z,48.34
2022-07-27T17:46:07.502Z,47.56
2022-07-27T17:48:35.381Z,47.91
2022-07-27T17:51:03.542Z,48.17
2022-07-27T17:53:31.200Z,47.90
2022-07-27T17:56:00.657Z,47.88
2022-07-27T17:58:30.446Z,46.78
2022-07-27T18:00:58.150Z,46.18
2022-07-27T18:03:25.750Z,46.89
2022-07-27T18:05:53.548Z,45.89
2022-07-27T18:08:21.075Z,43.84
2022-07-27T18:10:49.781Z,44.03
2022-07-27T18:13:18.764Z,44.40
2022-07-27T18:15:50.388Z,46.82
2022-07-27T18:18:20.553Z,49.24
2022-07-27T18:20:51.911Z,51.36
2022-07-27T18:23:20.450Z,51.90
2022-07-27T18:25:48.415Z,52.14
2022-07-27T18:28:16.962Z,54.80
2022-07-27T18:30:46.343Z,58.48
2022-07-27T18:33:14.450Z,60.08
2022-07-27T18:35:43.038Z,61.19
2022-07-27T18:38:10.824Z,61.21
2022-07-27T18:40:41.124Z,61.93
2022-07-27T18:43:10.582Z,61.31
2022-07-27T18:45:38.269Z,61.11
2022-07-27T18:48:08.791Z,61.73
2022-07-27T18:50:39.333Z,62.38
2022-07-27T18:53:07.396Z,64.18
2022-07-27T18:55:34.951Z,64.17
2022-07-27T18:58:02.479Z,68.15
2022-07-27T19:00:30.083Z,69.00
2022-07-27T19:02:58.523Z,70.36
2022-07-27T19:05:32.784Z,71.61
2022-07-27T19:08:11.357Z,74.25
2022-07-27T19:10:42.112Z,77.04
2022-07-27T19:13:10.324Z,80.13
2022-07-27T19:15:38.138Z,80.03
2022-07-27T19:18:06.245Z,81.07
2022-07-27T19:20:37.495Z,79.41
2022-07-27T19:23:05.154Z,81.66
2022-07-27T19:25:33.676Z,81.95
2022-07-27T19:28:01.847Z,81.77
2022-07-27T19:30:29.425Z,84.01
2022-07-27T19:32:57.340Z,84.58
2022-07-27T19:35:24.887Z,83.06
2022-07-27T19:37:53.738Z,82.16
2022-07-27T19:43:09.085Z,83.30
2022-07-27T19:45:37.313Z,84.21
2022-07-27T19:48:05.609Z,80.03
2022-07-27T19:50:33.570Z,78.96
2022-07-27T19:53:03.067Z,79.56
2022-07-27T19:55:30.605Z,78.83
2022-07-27T19:57:58.136Z,83.15
2022-07-27T20:00:25.965Z,83.43
2022-07-27T20:02:53.828Z,83.14
2022-07-27T20:05:22.563Z,89.10
2022-07-27T20:07:50.162Z,86.48
2022-07-27T20:10:19.106Z,83.79
2022-07-27T20:12:46.627Z,84.67
2022-07-27T20:15:14.295Z,89.53
2022-07-27T20:17:41.819Z,87.26
2022-07-27T20:20:11.547Z,91.74
2022-07-27T20:22:40.903Z,88.67
2022-07-27T20:25:10.460Z,85.25
2022-07-27T20:27:39.735Z,86.94
2022-07-27T20:30:08.945Z,86.86
2022-07-27T20:32:36.812Z,86.74
2022-07-27T20:35:05.362Z,90.57
2022-07-27T20:37:33.256Z,97.42
2022-07-27T20:40:00.980Z,92.52
2022-07-27T20:42:28.961Z,94.24
2022-07-27T20:44:57.827Z,93.40
2022-07-27T20:47:27.077Z,90.39
2022-07-27T20:49:56.251Z,87.91
2022-07-27T20:52:23.842Z,92.71
2022-07-27T20:54:51.448Z,94.05
2022-07-27T20:57:18.946Z,99.29
2022-07-27T20:59:46.449Z,95.93
2022-07-27T21:02:15.359Z,97.10
2022-07-27T21:04:42.941Z,96.91
2022-07-27T21:07:10.521Z,93.25
2022-07-27T21:09:38.116Z,93.93
2022-07-27T21:12:08.321Z,93.39
2022-07-27T21:14:35.827Z,91.52
2022-07-27T21:17:03.431Z,95.93
2022-07-27T21:19:33.011Z,97.53
2022-07-27T21:22:00.584Z,97.53
2022-07-27T21:24:28.863Z,95.95
2022-07-27T21:27:00.915Z,96.73
2022-07-27T21:29:32.257Z,96.92
2022-07-27T21:31:59.819Z,97.52
2022-07-27T21:34:27.678Z,93.15
2022-07-27T21:36:56.522Z,93.33
2022-07-27T21:39:24.897Z,91.37
2022-07-27T21:41:52.492Z,91.55
2022-07-27T21:44:19.952Z,96.92
2022-07-27T21:46:48.359Z,94.36
2022-07-27T21:49:15.986Z,98.69
2022-07-27T21:51:43.518Z,100.00
2022-07-27T21:54:12.535Z,100.00
2022-07-27T21:56:41.717Z,100.00
2022-07-27T21:59:10.002Z,100.00
2022-07-27T22:01:37.575Z,100.00
2022-07-27T22:04:05.549Z,100.00
2022-07-27T22:06:33.064Z,100.00
2022-07-27T22:09:01.020Z,100.00
2022-07-27T22:11:29.864Z,100.00
2022-07-27T22:13:57.463Z,100.00
2022-07-27T22:16:25.050Z,100.00
2022-07-27T22:18:52.662Z,100.00
2022-07-27T22:21:21.602Z,100.00
2022-07-27T22:23:49.301Z,100.00
2022-07-27T22:26:17.379Z,100.00
2022-07-27T22:28:46.243Z,100.00
2022-07-27T22:31:22.777Z,100.00
2022-07-27T22:33:51.222Z,100.00
2022-07-27T22:36:18.750Z,100.00
2022-07-27T22:38:46.313Z,100.00
2022-07-27T22:41:13.861Z,100.00
2022-07-27T22:43:41.829Z,100.00
2022-07-27T22:46:10.875Z,100.00
2022-07-27T22:48:38.908Z,100.00
2022-07-27T22:51:07.652Z,100.00
2022-07-27T22:53:35.404Z,100.00
2022-07-27T22:56:02.885Z,100.00
2022-07-27T22:58:30.374Z,100.00
2022-07-27T23:00:59.877Z,100.00
2022-07-27T23:03:28.946Z,100.00
2022-07-27T23:05:56.428Z,100.00
2022-07-27T23:08:24.036Z,100.00
2022-07-27T23:10:51.523Z,100.00
2022-07-27T23:13:20.419Z,100.00
2022-07-27T23:15:48.475Z,100.00
2022-07-27T23:18:17.154Z,100.00
2022-07-27T23:20:46.398Z,100.00
2022-07-27T23:23:16.448Z,100.00
2022-07-27T23:25:44.462Z,100.00
2022-07-27T23:28:12.258Z,100.00
2022-07-27T23:30:39.925Z,100.00
2022-07-27T23:33:07.476Z,100.00
2022-07-27T23:35:35.114Z,100.00
2022-07-27T23:38:04.024Z,100.00
2022-07-27T23:40:31.720Z,100.00
2022-07-27T23:42:59.213Z,100.00
2022-07-27T23:45:27.362Z,100.00
2022-07-27T23:47:55.196Z,100.00
2022-07-27T23:50:23.063Z,100.00
2022-07-27T23:52:50.627Z,100.00
2022-07-27T23:55:19.544Z,100.00
2022-07-27T23:57:47.297Z,100.00
